Time;durP1;ratioP1;P1;durP2;ratioP2;P2;SDS_P1;SDS_P2;PMS_P1;PMS_P2;Temp;Humidity;BMP_temperature;BMP_pressure;BME280_temperature;BME280_humidity;BME280_pressure;Samples;Min_cycle;Max_cycle;Signal;HPM_P1;HPM_P2
2021/12/12 00:01:31;;;;;;;6.15;4.43;;;19.20;43.10;;;;;;5051644;28;20025;-88
2021/12/12 00:04:09;;;;;;;6.63;4.30;;;19.10;43.10;;;;;;5050083;28;20516;-87
2021/12/12 00:06:37;;;;;;;4.80;4.25;;;19.10;43.20;;;;;;5051648;28;20033;-88
2021/12/12 00:09:14;;;;;;;6.25;4.45;;;19.00;43.10;;;;;;5050002;28;20032;-88
2021/12/12 00:11:40;;;;;;;5.45;4.40;;;19.00;43.20;;;;;;5050154;28;20167;-88
2021/12/12 00:14:12;;;;;;;6.57;4.53;;;19.00;43.20;;;;;;5051312;28;20053;-88
2021/12/12 00:16:40;;;;;;;6.85;4.50;;;19.00;43.20;;;;;;5050291;28;20055;-87
2021/12/12 00:19:06;;;;;;;6.88;4.20;;;18.90;43.30;;;;;;5049986;28;20474;-88
2021/12/12 00:21:34;;;;;;;5.03;4.15;;;18.90;43.30;;;;;;5051692;28;20074;-88
2021/12/12 00:24:00;;;;;;;6.72;4.78;;;18.90;43.30;;;;;;5053859;28;20033;-88
2021/12/12 00:26:26;;;;;;;5.30;4.28;;;18.90;44.40;;;;;;5054911;28;20025;-88
2021/12/12 00:28:52;;;;;;;5.85;4.60;;;18.90;43.40;;;;;;5055204;28;20398;-88
2021/12/12 00:31:20;;;;;;;5.60;4.55;;;18.80;43.40;;;;;;5055129;28;20525;-87
2021/12/12 00:33:49;;;;;;;6.18;4.93;;;18.80;43.40;;;;;;5053693;28;20017;-87
2021/12/12 00:36:18;;;;;;;7.28;4.72;;;18.80;43.50;;;;;;5053750;28;20033;-88
2021/12/12 00:38:53;;;;;;;6.05;4.47;;;18.80;43.50;;;;;;5053657;28;20036;-87
2021/12/12 00:41:30;;;;;;;5.72;4.32;;;18.80;43.50;;;;;;5053621;28;20112;-87
2021/12/12 00:43:57;;;;;;;4.85;4.05;;;18.70;43.50;;;;;;5053661;28;20033;-88
2021/12/12 00:46:25;;;;;;;5.45;4.35;;;18.70;43.60;;;;;;5054472;28;20021;-88
2021/12/12 00:48:52;;;;;;;5.63;4.28;;;18.60;43.60;;;;;;5053303;28;20033;-88
2021/12/12 00:51:26;;;;;;;6.43;4.68;;;18.60;43.60;;;;;;5052941;28;20039;-86
2021/12/12 00:53:52;;;;;;;7.13;4.90;;;18.60;43.70;;;;;;5054934;28;20478;-88
2021/12/12 00:56:19;;;;;;;6.55;4.70;;;18.60;43.70;;;;;;5054271;28;20017;-87
2021/12/12 00:58:45;;;;;;;8.13;4.97;;;18.60;43.70;;;;;;5054776;28;20033;-87
2021/12/12 01:01:19;;;;;;;7.10;4.63;;;18.50;43.70;;;;;;5054406;28;20025;-88
2021/12/12 01:03:52;;;;;;;7.50;5.10;;;18.50;43.70;;;;;;5054552;28;20037;-88
2021/12/12 01:06:20;;;;;;;5.65;4.43;;;18.50;43.80;;;;;;5053142;28;20028;-88
2021/12/12 01:08:47;;;;;;;7.57;4.95;;;18.50;43.80;;;;;;5054551;28;20047;-88
2021/12/12 01:11:18;;;;;;;8.50;4.47;;;18.50;43.80;;;;;;5053678;28;20074;-88
2021/12/12 01:13:46;;;;;;;6.47;5.20;;;18.50;43.90;;;;;;5054346;28;20024;-88
2021/12/12 01:16:17;;;;;;;6.82;4.72;;;18.40;43.80;;;;;;5052764;28;20032;-88
2021/12/12 01:18:51;;;;;;;7.05;4.82;;;18.40;43.90;;;;;;5054143;28;20063;-88
2021/12/12 01:21:22;;;;;;;6.35;4.95;;;18.40;43.80;;;;;;5053281;28;20077;-88
2021/12/12 01:23:57;;;;;;;7.53;4.63;;;18.30;43.90;;;;;;5054033;28;20040;-87
2021/12/12 01:26:23;;;;;;;6.75;5.15;;;18.30;44.90;;;;;;5052415;28;20052;-88
2021/12/12 01:28:54;;;;;;;6.47;4.75;;;18.30;43.80;;;;;;5052746;28;20029;-88
2021/12/12 01:31:24;;;;;;;8.20;5.15;;;18.30;43.80;;;;;;5052582;28;20078;-88
2021/12/12 01:33:59;;;;;;;7.13;5.38;;;18.30;43.90;;;;;;5052588;28;20033;-88
2021/12/12 01:36:42;;;;;;;7.75;5.30;;;18.30;43.90;;;;;;5052662;28;20110;-88
2021/12/12 01:39:09;;;;;;;7.55;4.93;;;18.20;43.90;;;;;;5054059;28;20397;-88
2021/12/12 01:41:44;;;;;;;6.82;5.10;;;18.20;43.80;;;;;;5052271;28;20040;-88
2021/12/12 01:44:29;;;;;;;6.75;5.15;;;18.20;43.90;;;;;;5052354;28;20029;-88
2021/12/12 01:47:16;;;;;;;8.40;5.72;;;18.20;43.90;;;;;;5053904;28;20524;-88
2021/12/12 01:49:46;;;;;;;8.40;5.63;;;18.20;43.90;;;;;;5053455;28;20028;-88
2021/12/12 01:52:15;;;;;;;7.38;5.30;;;18.10;43.90;;;;;;5053534;28;20031;-88
2021/12/12 01:54:45;;;;;;;8.25;5.25;;;18.10;43.90;;;;;;5051941;28;20017;-87
2021/12/12 01:57:26;;;;;;;8.30;5.55;;;18.10;43.90;;;;;;5052300;28;20111;-86
2021/12/12 01:59:53;;;;;;;8.23;5.35;;;18.00;43.80;;;;;;5053575;28;20047;-89
2021/12/12 02:02:24;;;;;;;7.63;6.10;;;18.00;43.90;;;;;;5053048;28;21002;-88
2021/12/12 02:04:55;;;;;;;6.82;5.35;;;18.00;43.90;;;;;;5053589;28;20037;-88
2021/12/12 02:07:35;;;;;;;7.78;5.78;;;18.00;44.00;;;;;;5051925;28;20064;-88
2021/12/12 02:10:06;;;;;;;7.82;5.72;;;18.00;45.00;;;;;;5051843;28;20021;-88
2021/12/12 02:12:32;;;;;;;7.70;5.82;;;18.00;44.00;;;;;;5053258;28;20460;-88
2021/12/12 02:14:59;;;;;;;7.13;5.05;;;17.90;44.00;;;;;;5053234;28;20032;-88
2021/12/12 02:17:36;;;;;;;7.20;5.60;;;17.90;44.10;;;;;;5052660;28;20024;-88
2021/12/12 02:20:20;;;;;;;8.15;5.50;;;17.90;44.10;;;;;;5051540;28;20060;-88
2021/12/12 02:23:04;;;;;;;7.93;5.93;;;17.90;44.20;;;;;;5052995;28;20032;-88
2021/12/12 02:36:43;;;;;;;8.50;5.90;;;17.70;44.30;;;;;;5052742;28;20031;-88
2021/12/12 02:39:15;;;;;;;8.23;6.03;;;17.70;44.30;;;;;;5051603;28;20073;-88
2021/12/12 02:41:43;;;;;;;9.32;6.53;;;17.70;44.30;;;;;;5051163;28;20083;-87
2021/12/12 02:44:10;;;;;;;10.52;6.55;;;17.70;44.40;;;;;;5050539;28;20478;-88
2021/12/12 02:46:37;;;;;;;11.50;6.68;;;17.60;44.50;;;;;;5051480;28;20036;-88
2021/12/12 02:49:11;;;;;;;9.57;6.43;;;17.60;44.40;;;;;;5052483;28;20104;-88
2021/12/12 02:51:42;;;;;;;8.27;6.10;;;17.60;44.40;;;;;;5052370;28;20029;-88
2021/12/12 02:54:10;;;;;;;7.55;6.32;;;17.60;44.50;;;;;;5051065;28;20516;-88
2021/12/12 02:56:40;;;;;;;8.13;6.25;;;17.50;44.40;;;;;;5051049;28;20378;-88
2021/12/12 02:59:11;;;;;;;7.72;6.10;;;17.50;44.50;;;;;;5051306;28;20104;-88
2021/12/12 03:01:41;;;;;;;8.68;6.53;;;17.50;44.50;;;;;;5052476;28;20021;-87
2021/12/12 03:04:08;;;;;;;9.93;6.38;;;17.50;44.50;;;;;;5051968;28;20065;-87
2021/12/12 03:06:37;;;;;;;11.70;6.72;;;17.50;44.60;;;;;;5050774;28;20486;-87
2021/12/12 03:09:36;;;;;;;8.85;6.28;;;17.50;44.60;;;;;;5052106;28;20059;-88
2021/12/12 03:12:10;;;;;;;10.55;6.88;;;17.50;44.50;;;;;;5039351;28;20087;-87
2021/12/12 03:14:36;;;;;;;8.75;5.97;;;17.40;44.60;;;;;;5050604;28;20028;-88
2021/12/12 03:17:17;;;;;;;8.88;5.93;;;17.40;44.70;;;;;;5050730;28;20028;-88
2021/12/12 03:19:49;;;;;;;9.70;6.38;;;17.40;44.60;;;;;;5051703;28;20037;-87
2021/12/12 03:22:16;;;;;;;8.40;6.05;;;17.40;44.70;;;;;;5050719;28;20021;-88
2021/12/12 03:24:42;;;;;;;9.52;6.20;;;17.30;44.70;;;;;;5051642;28;20037;-88
2021/12/12 03:27:10;;;;;;;8.90;6.57;;;17.30;44.70;;;;;;5050392;28;20111;-88
2021/12/12 03:29:39;;;;;;;8.43;6.18;;;17.30;44.80;;;;;;5051601;28;20028;-88
2021/12/12 03:32:10;;;;;;;8.63;6.25;;;17.30;44.80;;;;;;5051990;28;20036;-88
2021/12/12 03:34:41;;;;;;;10.05;6.32;;;17.20;45.90;;;;;;5050389;28;20020;-88
2021/12/12 03:37:10;;;;;;;10.05;6.45;;;17.30;45.00;;;;;;5050691;28;20375;-88
2021/12/12 03:39:39;;;;;;;9.50;6.22;;;17.20;45.00;;;;;;5051759;28;20017;-88
2021/12/12 03:42:13;;;;;;;9.75;6.40;;;17.20;45.00;;;;;;5051744;28;20079;-87
2021/12/12 03:44:39;;;;;;;;;;;17.20;44.90;;;;;;5050781;28;20036;-88
2021/12/12 03:47:28;;;;;;;11.35;6.50;;;17.10;45.00;;;;;;5050524;28;20342;-87
2021/12/12 03:49:55;;;;;;;8.23;6.40;;;17.10;45.10;;;;;;5049796;28;20033;-88
2021/12/12 03:52:22;;;;;;;8.88;6.18;;;17.10;45.10;;;;;;5050604;28;20386;-88
2021/12/12 03:54:50;;;;;;;7.40;5.78;;;17.10;45.10;;;;;;5050876;28;20028;-88
2021/12/12 03:57:18;;;;;;;9.60;6.18;;;17.10;46.30;;;;;;5054532;28;20055;-88
2021/12/12 03:59:44;;;;;;;8.60;6.00;;;17.10;45.30;;;;;;5055750;28;20111;-88
2021/12/12 04:02:09;;;;;;;6.88;5.60;;;17.00;45.20;;;;;;5054252;28;20465;-88
2021/12/12 04:04:41;;;;;;;10.85;6.70;;;17.00;45.30;;;;;;5055058;28;20037;-87
2021/12/12 04:07:14;;;;;;;9.90;5.82;;;17.00;45.30;;;;;;5053900;28;20021;-88
2021/12/12 04:09:41;;;;;;;9.52;6.35;;;17.00;45.30;;;;;;5054156;28;20029;-88
2021/12/12 04:12:10;;;;;;;8.75;6.10;;;17.00;45.40;;;;;;5055305;28;20356;-88
2021/12/12 04:14:37;;;;;;;10.00;6.38;;;16.90;45.40;;;;;;5054587;28;20013;-87
2021/12/12 04:17:11;;;;;;;9.52;5.57;;;16.90;45.30;;;;;;5054927;28;20029;-87
2021/12/12 04:19:38;;;;;;;9.13;5.90;;;16.90;45.40;;;;;;5054293;28;20056;-88
2021/12/12 04:22:04;;;;;;;8.73;6.15;;;16.90;45.40;;;;;;5053976;28;20017;-87
2021/12/12 04:24:34;;;;;;;8.15;6.00;;;16.90;45.40;;;;;;5055221;28;20378;-88
2021/12/12 04:27:01;;;;;;;10.63;6.15;;;16.90;45.40;;;;;;5054720;28;20053;-86
2021/12/12 04:29:34;;;;;;;7.70;5.63;;;16.90;45.50;;;;;;5054158;28;20028;-87
2021/12/12 04:32:06;;;;;;;8.20;5.78;;;16.90;45.50;;;;;;5055131;28;20533;-88
2021/12/12 04:34:34;;;;;;;10.35;6.45;;;16.80;45.50;;;;;;5055018;28;20029;-87
2021/12/12 04:37:03;;;;;;;9.30;5.53;;;16.80;45.50;;;;;;5054922;28;20031;-88
2021/12/12 04:39:33;;;;;;;11.18;5.82;;;16.80;45.50;;;;;;5054917;28;20017;-87
2021/12/12 04:42:06;;;;;;;7.95;4.95;;;16.80;45.60;;;;;;5055068;28;20024;-87
2021/12/12 04:44:35;;;;;;;8.32;5.90;;;16.80;45.60;;;;;;5053320;28;20102;-87
2021/12/12 04:50:24;;;;;;;10.25;6.35;;;16.70;45.60;;;;;;5054712;28;20385;-87
2021/12/12 04:53:06;;;;;;;10.38;6.10;;;16.70;45.60;;;;;;5053361;28;20021;-87
2021/12/12 04:55:41;;;;;;;11.10;6.50;;;16.70;45.70;;;;;;5054724;28;20498;-87
2021/12/12 04:58:18;;;;;;;9.80;5.95;;;16.70;45.70;;;;;;5054764;28;20047;-87
2021/12/12 05:01:01;;;;;;;10.18;5.93;;;16.70;45.70;;;;;;5054471;28;20021;-87
2021/12/12 05:03:55;;;;;;;10.48;6.18;;;16.70;45.70;;;;;;5054144;28;20104;-86
2021/12/12 05:06:33;;;;;;;11.63;6.25;;;16.60;45.70;;;;;;5054108;28;20036;-87
2021/12/12 05:09:31;;;;;;;9.93;5.43;;;16.60;45.80;;;;;;5054559;28;20029;-87
2021/12/12 05:11:56;;;;;;;9.15;5.47;;;16.60;45.80;;;;;;5053030;28;20025;-87
2021/12/12 05:14:28;;;;;;;10.77;5.90;;;16.60;45.90;;;;;;5054096;28;20024;-87
2021/12/12 05:17:13;;;;;;;9.70;5.88;;;16.60;45.90;;;;;;5054276;28;20029;-87
2021/12/12 05:19:45;;;;;;;10.13;5.22;;;16.60;45.90;;;;;;5053975;28;20037;-88
2021/12/12 05:22:16;;;;;;;10.88;5.68;;;16.60;46.00;;;;;;5054109;28;20091;-87
2021/12/12 05:24:47;;;;;;;10.15;5.80;;;16.60;46.00;;;;;;5052801;28;20456;-87
2021/12/12 05:27:16;;;;;;;9.65;5.57;;;16.50;45.90;;;;;;5053974;28;20049;-87
2021/12/12 05:30:05;;;;;;;12.30;5.43;;;16.50;46.00;;;;;;5054078;28;20032;-87
2021/12/12 05:32:32;;;;;;;9.23;5.18;;;16.50;46.00;;;;;;5053879;28;20112;-87
2021/12/12 05:35:00;;;;;;;9.68;5.22;;;16.50;46.10;;;;;;5053850;28;20033;-87
2021/12/12 05:37:26;;;;;;;8.30;5.18;;;16.50;46.10;;;;;;5053676;28;20113;-87
2021/12/12 05:39:53;;;;;;;9.55;4.93;;;16.50;46.10;;;;;;5052567;28;20020;-87
2021/12/12 05:42:20;;;;;;;8.13;5.18;;;16.40;46.10;;;;;;5053673;28;20100;-87
2021/12/12 05:44:47;;;;;;;8.85;4.60;;;16.40;46.20;;;;;;5053667;28;20025;-87
2021/12/12 05:47:13;;;;;;;8.52;4.93;;;16.50;46.20;;;;;;5053737;28;20052;-87
2021/12/12 05:49:41;;;;;;;8.15;5.03;;;16.40;46.20;;;;;;5052259;28;20114;-87
2021/12/12 05:52:14;;;;;;;8.77;4.38;;;16.40;46.20;;;;;;5052350;28;20066;-87
2021/12/12 05:54:40;;;;;;;6.60;3.95;;;16.40;46.20;;;;;;5052136;28;20497;-87
2021/12/12 05:57:09;;;;;;;8.50;4.35;;;16.40;46.30;;;;;;5053662;28;20115;-87
2021/12/12 05:59:36;;;;;;;7.90;3.95;;;16.40;46.30;;;;;;5053366;28;20029;-87
2021/12/12 06:02:05;;;;;;;8.95;4.20;;;16.40;46.40;;;;;;5053175;28;20055;-87
2021/12/12 06:04:31;;;;;;;7.10;4.10;;;16.40;46.40;;;;;;5051801;28;20033;-87
2021/12/12 06:06:57;;;;;;;6.75;3.97;;;16.40;46.50;;;;;;5053435;28;20529;-86
2021/12/12 06:09:24;;;;;;;8.68;3.85;;;16.40;46.40;;;;;;5053324;28;20025;-87
2021/12/12 06:11:52;;;;;;;7.20;4.07;;;16.40;46.40;;;;;;5053164;28;20021;-87
2021/12/12 06:14:20;;;;;;;6.38;3.90;;;16.40;46.40;;;;;;5053032;28;20467;-87
2021/12/12 06:16:47;;;;;;;7.97;3.95;;;16.40;46.60;;;;;;5053145;28;20067;-87
2021/12/12 06:19:16;;;;;;;6.22;3.60;;;16.40;46.60;;;;;;5052005;28;20029;-87
2021/12/12 06:21:42;;;;;;;6.18;3.38;;;16.40;46.70;;;;;;5051674;28;20028;-87
2021/12/12 06:24:09;;;;;;;7.18;3.30;;;16.50;46.70;;;;;;5052791;28;20056;-87
2021/12/12 06:26:36;;;;;;;5.35;3.10;;;16.60;46.70;;;;;;5052722;28;20053;-87
2021/12/12 06:29:03;;;;;;;5.38;3.05;;;16.70;46.70;;;;;;5052804;28;20017;-87
2021/12/12 06:31:28;;;;;;;6.18;3.10;;;16.80;46.70;;;;;;5051445;28;20043;-87
2021/12/12 06:33:55;;;;;;;4.50;2.55;;;16.90;46.70;;;;;;5052866;28;20470;-87
2021/12/12 06:36:21;;;;;;;5.55;3.00;;;17.00;46.50;;;;;;5052661;28;20017;-87
2021/12/12 06:38:50;;;;;;;4.20;2.70;;;17.10;46.40;;;;;;5052719;28;20087;-87
2021/12/12 06:41:23;;;;;;;5.18;2.80;;;17.30;46.40;;;;;;5109513;27;20117;-87
2021/12/12 06:43:50;;;;;;;5.63;2.80;;;17.40;46.10;;;;;;5109789;28;20089;-86
2021/12/12 06:46:18;;;;;;;5.03;2.42;;;17.60;45.90;;;;;;5091529;28;20051;-86
2021/12/12 06:48:44;;;;;;;5.80;2.75;;;17.80;45.80;;;;;;5109570;28;20085;-86
2021/12/12 06:51:11;;;;;;;5.25;2.60;;;18.00;45.50;;;;;;5109494;28;20099;-86
2021/12/12 06:53:39;;;;;;;4.60;2.45;;;18.20;45.20;;;;;;5109461;28;20079;-87
2021/12/12 06:56:06;;;;;;;4.72;2.40;;;18.40;44.90;;;;;;5091196;28;20051;-87
2021/12/12 06:58:32;;;;;;;4.32;2.45;;;18.60;44.60;;;;;;5109405;28;20489;-87
2021/12/12 07:01:09;;;;;;;4.03;2.22;;;18.80;44.20;;;;;;5109441;28;20107;-88
2021/12/12 07:03:37;;;;;;;5.18;2.25;;;19.10;44.10;;;;;;5091060;28;20032;-86
2021/12/12 07:06:03;;;;;;;3.88;2.20;;;19.20;43.70;;;;;;5109459;28;20024;-88
2021/12/12 07:08:29;;;;;;;2.75;1.77;;;19.40;43.40;;;;;;5091114;28;20042;-88
2021/12/12 07:10:55;;;;;;;4.35;2.08;;;19.60;43.20;;;;;;5109461;28;20487;-88
2021/12/12 07:13:22;;;;;;;5.72;2.08;;;19.60;43.00;;;;;;5109122;28;20024;-87
2021/12/12 07:15:56;;;;;;;4.28;1.65;;;19.80;42.90;;;;;;5091120;28;20023;-87
2021/12/12 07:18:27;;;;;;;4.75;2.05;;;19.80;42.70;;;;;;5108979;28;20471;-86
2021/12/12 07:20:56;;;;;;;4.75;1.98;;;19.90;42.70;;;;;;5091028;28;20477;-87
2021/12/12 07:23:22;;;;;;;6.50;2.00;;;20.00;42.60;;;;;;5108948;28;20157;-87
2021/12/12 07:25:48;;;;;;;11.45;1.85;;;20.10;42.50;;;;;;5108975;28;20020;-88
2021/12/12 07:28:15;;;;;;;6.95;1.95;;;20.20;42.50;;;;;;5108820;28;20026;-87
2021/12/12 07:30:41;;;;;;;6.82;2.00;;;20.20;42.30;;;;;;5108944;28;20023;-87
2021/12/12 07:33:07;;;;;;;6.20;1.85;;;20.30;42.30;;;;;;5090549;28;20026;-86
2021/12/12 07:35:36;;;;;;;7.53;1.92;;;20.30;42.40;;;;;;5090541;28;20024;-88
2021/12/12 07:38:05;;;;;;;9.82;1.90;;;20.40;42.30;;;;;;5090673;28;20043;-88
2021/12/12 07:40:30;;;;;;;6.78;1.65;;;20.40;42.30;;;;;;5090074;28;20078;-87
2021/12/12 07:42:56;;;;;;;4.22;1.60;;;20.40;42.30;;;;;;5108919;28;20481;-87
2021/12/12 07:45:23;;;;;;;8.43;1.90;;;20.40;42.20;;;;;;5108409;28;20066;-87
2021/12/12 07:47:50;;;;;;;6.22;1.95;;;20.50;42.60;;;;;;5108909;28;20028;-87
2021/12/12 07:50:17;;;;;;;7.55;1.63;;;20.50;42.30;;;;;;5108336;28;20020;-87
2021/12/12 07:52:45;;;;;;;7.03;1.77;;;20.50;42.30;;;;;;5095186;28;20024;-87
2021/12/12 07:55:11;;;;;;;5.53;1.40;;;20.50;42.30;;;;;;5094825;28;20044;-87
2021/12/12 07:57:37;;;;;;;11.00;1.67;;;20.50;42.30;;;;;;5076499;28;20078;-87
2021/12/12 08:00:10;;;;;;;8.45;1.73;;;20.50;42.30;;;;;;5094778;28;20032;-87
2021/12/12 08:02:36;;;;;;;6.93;1.17;;;20.50;42.30;;;;;;5076307;28;20035;-87
2021/12/12 08:05:04;;;;;;;8.07;1.55;;;20.50;42.30;;;;;;5077029;28;20024;-90
2021/12/12 08:07:32;;;;;;;6.90;1.40;;;20.50;42.40;;;;;;5094643;28;20385;-87
2021/12/12 08:09:59;;;;;;;4.50;1.20;;;20.60;42.50;;;;;;5094891;28;20020;-88
2021/12/12 08:12:27;;;;;;;6.63;1.48;;;20.60;42.40;;;;;;5094517;28;20024;-88
2021/12/12 08:14:53;;;;;;;6.13;1.40;;;20.60;42.50;;;;;;5095256;28;20027;-89
2021/12/12 08:17:21;;;;;;;2.65;1.30;;;20.50;42.50;;;;;;5094646;28;20058;-88
2021/12/12 08:19:49;;;;;;;5.25;1.38;;;20.60;42.60;;;;;;5094641;28;20115;-88
2021/12/12 08:22:14;;;;;;;8.68;1.50;;;20.60;42.80;;;;;;5059865;28;20028;-89
2021/12/12 08:24:41;;;;;;;4.53;1.20;;;20.60;42.70;;;;;;5094797;28;20377;-91
2021/12/12 08:27:09;;;;;;;7.38;1.30;;;20.50;42.70;;;;;;5094824;28;20020;-89
2021/12/12 08:29:36;;;;;;;7.05;1.42;;;20.50;42.80;;;;;;5076485;28;20081;-90
2021/12/12 08:32:11;;;;;;;10.10;1.80;;;20.50;42.80;;;;;;5076753;28;20567;-90
2021/12/12 08:34:37;;;;;;;4.18;1.10;;;20.50;42.80;;;;;;5094601;28;20025;-87
2021/12/12 08:37:05;;;;;;;4.55;1.33;;;20.50;42.90;;;;;;5094638;28;20465;-90
2021/12/12 08:39:31;;;;;;;3.75;1.20;;;20.50;42.90;;;;;;5094378;28;20501;-88
2021/12/12 08:41:58;;;;;;;5.63;1.30;;;20.50;43.00;;;;;;5076855;28;20115;-91
2021/12/12 08:44:27;;;;;;;5.85;1.35;;;20.50;43.00;;;;;;5076246;28;20048;-88
2021/12/12 08:46:57;;;;;;;5.18;1.40;;;20.50;43.00;;;;;;5076472;28;20020;-87
2021/12/12 08:49:25;;;;;;;4.95;1.15;;;20.50;43.00;;;;;;5094539;28;20020;-89
2021/12/12 08:51:57;;;;;;;4.47;1.13;;;20.50;43.00;;;;;;5094409;28;20020;-91
2021/12/12 08:54:28;;;;;;;3.50;1.10;;;20.50;43.10;;;;;;5076284;28;20077;-89
2021/12/12 08:57:08;;;;;;;5.00;1.20;;;20.50;43.10;;;;;;5094500;28;20066;-88
2021/12/12 08:59:39;;;;;;;4.38;1.60;;;20.50;43.10;;;;;;5076056;28;20028;-88
2021/12/12 09:02:08;;;;;;;7.07;1.40;;;20.40;43.20;;;;;;5075936;28;20036;-88
2021/12/12 09:04:40;;;;;;;3.85;1.10;;;20.40;43.10;;;;;;5093187;28;20374;-90
2021/12/12 09:07:27;;;;;;;8.05;1.10;;;20.40;43.10;;;;;;5094022;28;20409;-87
2021/12/12 09:10:15;;;;;;;3.65;1.00;;;20.40;43.20;;;;;;5093850;28;20024;-88
2021/12/12 09:12:46;;;;;;;5.20;1.40;;;20.40;43.20;;;;;;5075808;28;20479;-89
2021/12/12 09:15:35;;;;;;;2.47;1.10;;;20.40;43.30;;;;;;5075864;28;20123;-90
2021/12/12 09:18:20;;;;;;;5.10;1.20;;;20.40;43.30;;;;;;5075932;28;20123;-89
2021/12/12 09:20:56;;;;;;;3.60;0.90;;;20.40;43.30;;;;;;5093782;28;20032;-89
2021/12/12 09:23:34;;;;;;;2.15;0.98;;;20.40;43.30;;;;;;5075524;28;20116;-87
2021/12/12 09:26:04;;;;;;;3.97;1.05;;;20.50;43.40;;;;;;5093890;28;20020;-88
2021/12/12 09:28:37;;;;;;;1.67;0.70;;;20.40;43.40;;;;;;5075320;28;20090;-87
2021/12/12 09:31:10;;;;;;;3.70;1.27;;;20.40;43.40;;;;;;5075688;28;20024;-87
2021/12/12 09:33:45;;;;;;;2.33;1.02;;;20.40;43.40;;;;;;5075468;28;20031;-90
2021/12/12 09:36:15;;;;;;;3.83;0.98;;;20.40;43.40;;;;;;5093577;28;20552;-89
2021/12/12 09:38:48;;;;;;;5.07;1.48;;;20.40;43.40;;;;;;5075295;28;20465;-88
2021/12/12 09:41:14;;;;;;;2.75;0.90;;;20.40;43.40;;;;;;5092953;28;20056;-90
2021/12/12 09:43:52;;;;;;;4.43;1.00;;;20.40;43.40;;;;;;5093633;28;20026;-90
2021/12/12 09:47:01;;;;;;;7.53;1.45;;;20.40;43.50;;;;;;5093404;28;20108;-88
2021/12/12 09:53:06;;;;;;;11.70;1.50;;;20.50;43.70;;;;;;5092937;28;20089;-87
2021/12/12 09:56:01;;;;;;;14.05;1.58;;;20.50;43.90;;;;;;5092942;28;20020;-87
2021/12/12 09:58:52;;;;;;;15.18;1.63;;;20.50;44.10;;;;;;5074773;28;20442;-87
2021/12/12 10:01:23;;;;;;;13.90;1.70;;;20.60;44.20;;;;;;5074825;28;20084;-87
2021/12/12 10:04:05;;;;;;;12.18;1.70;;;20.60;44.10;;;;;;5093059;28;20016;-88
2021/12/12 10:06:56;;;;;;;12.65;1.40;;;20.70;44.30;;;;;;5093068;28;20024;-89
2021/12/12 10:09:37;;;;;;;17.25;1.67;;;20.80;44.40;;;;;;5092854;28;20091;-89
2021/12/12 10:12:11;;;;;;;11.07;1.67;;;20.90;44.30;;;;;;5074552;28;20118;-88
2021/12/12 10:14:57;;;;;;;12.98;1.40;;;21.00;44.20;;;;;;5092859;28;20031;-88
2021/12/12 10:17:30;;;;;;;10.55;1.50;;;21.20;44.30;;;;;;5092722;28;20767;-90
2021/12/12 10:19:59;;;;;;;;;;;21.20;44.00;;;;;;5093264;28;20069;-91
2021/12/12 10:22:59;;;;;;;9.68;1.25;;;21.30;44.10;;;;;;5074875;28;19908;-88
2021/12/12 10:25:35;;;;;;;9.80;1.50;;;21.40;43.80;;;;;;5092796;28;20024;-88
2021/12/12 10:28:03;;;;;;;8.20;1.30;;;21.60;43.60;;;;;;5074612;28;20028;-89
2021/12/12 10:30:34;;;;;;;9.25;1.40;;;21.60;43.40;;;;;;5092456;28;20025;-90
2021/12/12 10:33:24;;;;;;;9.48;1.50;;;21.70;43.30;;;;;;5092795;28;20020;-86
2021/12/12 10:36:05;;;;;;;8.80;1.10;;;21.80;43.30;;;;;;5074460;28;20035;-88
2021/12/12 10:38:36;;;;;;;11.40;1.42;;;21.80;43.20;;;;;;5074474;28;20031;-91
2021/12/12 10:41:18;;;;;;;9.50;1.38;;;21.80;43.10;;;;;;5074560;28;20098;-88
2021/12/12 10:43:52;;;;;;;7.88;1.42;;;21.90;43.10;;;;;;5092534;28;20024;-86
2021/12/12 10:46:40;;;;;;;6.63;1.33;;;21.90;43.00;;;;;;5092397;28;20026;-87
2021/12/12 10:49:26;;;;;;;5.93;1.50;;;22.00;43.00;;;;;;5092395;28;20031;-86
2021/12/12 10:52:03;;;;;;;8.40;1.48;;;21.90;43.00;;;;;;5093236;28;20028;-90
2021/12/12 10:54:32;;;;;;;8.88;1.58;;;22.00;44.00;;;;;;5092433;28;20047;-88
2021/12/12 10:57:07;;;;;;;11.27;2.60;;;21.90;42.90;;;;;;5074704;28;20032;-91
2021/12/12 10:59:35;;;;;;;19.70;5.60;;;22.00;42.80;;;;;;5074543;28;20526;-94
2021/12/12 11:02:08;;;;;;;29.65;9.50;;;21.90;42.80;;;;;;5091819;28;20032;-89
2021/12/12 11:04:40;;;;;;;39.10;11.95;;;21.90;42.80;;;;;;5092533;28;20115;-95
2021/12/12 11:07:22;;;;;;;34.85;12.77;;;21.90;42.80;;;;;;5074746;28;20031;-91
2021/12/12 11:10:13;;;;;;;33.53;12.23;;;21.90;42.80;;;;;;5092440;28;20406;-89
2021/12/12 11:12:50;;;;;;;34.95;11.98;;;21.90;43.00;;;;;;5073899;28;20020;-91
2021/12/12 11:15:30;;;;;;;29.30;11.25;;;21.90;43.10;;;;;;5092550;28;20024;-90
2021/12/12 11:18:13;;;;;;;34.28;11.93;;;21.80;43.30;;;;;;5092814;28;20071;-93
2021/12/12 11:20:47;;;;;;;;;;;21.80;43.40;;;;;;5092491;28;20032;-91
2021/12/12 11:23:34;;;;;;;33.08;11.90;;;21.70;43.40;;;;;;5074315;28;19911;-88
2021/12/12 11:26:04;;;;;;;36.55;12.10;;;21.80;43.50;;;;;;5074612;28;20433;-89
2021/12/12 11:28:32;;;;;;;32.58;11.50;;;21.70;43.40;;;;;;5078122;28;20027;-89
2021/12/12 11:31:11;;;;;;;33.85;12.25;;;21.70;43.40;;;;;;5095908;28;20077;-90
2021/12/12 11:33:38;;;;;;;34.45;10.65;;;21.70;43.40;;;;;;5096175;28;20020;-88
2021/12/12 11:36:08;;;;;;;35.00;10.32;;;21.70;43.40;;;;;;5077911;28;20020;-93
2021/12/12 11:38:47;;;;;;;33.30;10.88;;;21.70;43.50;;;;;;5077684;28;20381;-90
2021/12/12 11:41:31;;;;;;;25.00;10.77;;;21.70;43.50;;;;;;5060800;28;20044;-90
2021/12/12 11:44:35;;;;;;;24.95;9.75;;;21.60;43.50;;;;;;5057785;28;20032;-92
2021/12/12 11:47:35;;;;;;;26.65;9.50;;;21.60;43.50;;;;;;5057803;28;20115;-90
2021/12/12 11:50:12;;;;;;;22.90;8.63;;;21.60;43.60;;;;;;5026016;28;20029;-89
2021/12/12 11:53:00;;;;;;;24.55;9.48;;;21.60;43.70;;;;;;5075656;28;20021;-90
2021/12/12 11:55:52;;;;;;;23.67;8.30;;;21.60;43.60;;;;;;5042520;28;20033;-88
2021/12/12 11:58:30;;;;;;;26.88;8.05;;;21.60;43.60;;;;;;5057902;28;20090;-89
2021/12/12 12:01:16;;;;;;;20.33;8.07;;;21.60;43.60;;;;;;5075345;28;20036;-92
2021/12/12 12:04:11;;;;;;;25.52;8.65;;;21.60;43.70;;;;;;5075390;28;20473;-87
2021/12/12 12:07:19;;;;;;;20.55;8.00;;;21.60;43.70;;;;;;5075185;28;20025;-90
2021/12/12 12:09:53;;;;;;;21.05;8.30;;;21.60;43.70;;;;;;5011304;28;20032;-88
2021/12/12 12:12:52;;;;;;;19.85;7.57;;;21.60;43.90;;;;;;5075125;28;20024;-90
2021/12/12 12:15:50;;;;;;;17.02;7.38;;;21.60;43.90;;;;;;5057200;28;20481;-88
2021/12/12 12:18:29;;;;;;;17.63;7.43;;;21.60;44.90;;;;;;5067621;28;20036;-89
2021/12/12 12:21:06;;;;;;;18.40;7.43;;;21.60;44.00;;;;;;5057082;28;20032;-90
2021/12/12 12:24:10;;;;;;;18.67;6.78;;;21.60;44.00;;;;;;5057168;28;20056;-90
2021/12/12 12:27:04;;;;;;;15.02;6.10;;;21.60;44.00;;;;;;5057007;28;20028;-87
2021/12/12 12:29:33;;;;;;;;;;;21.60;44.10;;;;;;5075139;28;20103;-89
2021/12/12 12:32:06;;;;;;;15.98;6.68;;;21.60;44.20;;;;;;5074763;28;19905;-90
2021/12/12 12:35:09;;;;;;;15.40;6.07;;;21.60;44.20;;;;;;5056891;28;20028;-90
2021/12/12 12:38:12;;;;;;;17.65;5.88;;;21.60;44.10;;;;;;5074380;28;20060;-85
2021/12/12 12:41:15;;;;;;;11.98;6.05;;;21.70;44.20;;;;;;5056407;28;20048;-86
2021/12/12 12:44:31;;;;;;;10.57;5.40;;;21.70;44.30;;;;;;5056839;28;20024;-88
2021/12/12 12:47:34;;;;;;;13.23;5.88;;;21.70;44.20;;;;;;5074203;28;20474;-88
2021/12/12 12:50:38;;;;;;;13.15;5.78;;;21.70;44.20;;;;;;5074020;28;20489;-90
2021/12/12 12:53:27;;;;;;;13.18;5.25;;;21.70;44.30;;;;;;5056175;28;20028;-86
2021/12/12 12:56:29;;;;;;;11.50;4.93;;;21.70;44.30;;;;;;5074483;28;20028;-86
2021/12/12 12:59:26;;;;;;;14.20;5.07;;;21.70;44.30;;;;;;5056168;28;20021;-87
2021/12/12 13:02:06;;;;;;;14.13;5.35;;;21.70;44.30;;;;;;5074262;28;20465;-91
2021/12/12 13:04:47;;;;;;;9.57;4.40;;;21.70;44.30;;;;;;5056920;28;20113;-90
2021/12/12 13:07:40;;;;;;;9.18;4.30;;;21.70;44.30;;;;;;5056178;28;20089;-91
2021/12/12 13:10:12;;;;;;;10.13;4.47;;;21.70;44.30;;;;;;5073967;28;20048;-87
2021/12/12 13:12:55;;;;;;;8.95;4.53;;;21.70;44.30;;;;;;5073955;28;20081;-90
2021/12/12 13:15:36;;;;;;;9.48;4.40;;;21.70;44.30;;;;;;5073669;28;20025;-87
2021/12/12 13:18:15;;;;;;;10.77;4.47;;;21.70;44.30;;;;;;5056190;28;20020;-91
2021/12/12 13:21:01;;;;;;;10.45;4.28;;;21.70;44.30;;;;;;5073713;28;20059;-92
2021/12/12 13:23:52;;;;;;;7.70;3.72;;;21.70;44.30;;;;;;5073715;28;20029;-89
2021/12/12 13:26:26;;;;;;;8.75;3.53;;;21.70;44.30;;;;;;5054262;28;20028;-88
2021/12/12 13:29:30;;;;;;;8.43;3.97;;;21.70;44.30;;;;;;5055893;28;20048;-87
2021/12/12 13:32:05;;;;;;;10.63;3.88;;;21.70;44.30;;;;;;5055768;28;20032;-86
2021/12/12 13:34:45;;;;;;;10.82;3.85;;;21.70;44.30;;;;;;5055724;28;20029;-91
2021/12/12 13:37:25;;;;;;;8.57;3.58;;;21.70;44.30;;;;;;5055814;28;20066;-87
2021/12/12 13:40:20;;;;;;;9.68;3.58;;;21.70;44.20;;;;;;5079079;28;20075;-91